createdAt,value
2019-03-06T00:01:15.695Z,100662.52
2019-03-06T00:03:45.501Z,100660.90
2019-03-06T00:06:17.064Z,100664.37
2019-03-06T00:08:46.672Z,100653.75
2019-03-06T00:11:16.670Z,100650.05
2019-03-06T00:13:46.441Z,100648.95
2019-03-06T00:16:16.172Z,100648.42
2019-03-06T00:18:45.907Z,100649.75
2019-03-06T00:21:15.669Z,100640.73
2019-03-06T00:23:45.540Z,100645.50
2019-03-06T00:26:15.341Z,100631.16
2019-03-06T00:28:45.173Z,100634.36
2019-03-06T00:31:14.911Z,100636.42
2019-03-06T00:33:44.803Z,100622.66
2019-03-06T00:36:16.268Z,100628.78
2019-03-06T00:38:46.100Z,100626.11
2019-03-06T00:41:17.436Z,100619.75
2019-03-06T00:43:47.169Z,100626.64
2019-03-06T00:46:17.085Z,100630.13
2019-03-06T00:48:46.748Z,100619.23
2019-03-06T00:51:16.573Z,100622.97
2019-03-06T00:53:46.303Z,100617.66
2019-03-06T00:56:16.435Z,100620.83
2019-03-06T00:58:46.119Z,100618.70
2019-03-06T01:01:16.554Z,100608.62
2019-03-06T01:03:46.413Z,100613.93
2019-03-06T01:06:16.263Z,100609.42
2019-03-06T01:08:45.960Z,100603.83
2019-03-06T01:11:15.766Z,100604.41
2019-03-06T01:13:45.505Z,100604.44
2019-03-06T01:16:15.288Z,100598.88
2019-03-06T01:18:45.100Z,100597.80
2019-03-06T01:21:15.045Z,100594.89
2019-03-06T01:23:44.789Z,100594.34
2019-03-06T01:26:14.506Z,100595.15
2019-03-06T01:28:44.298Z,100589.31
2019-03-06T01:31:14.170Z,100587.48
2019-03-06T01:33:45.512Z,100575.28
2019-03-06T01:36:19.876Z,100574.98
2019-03-06T01:39:03.821Z,100566.48
2019-03-06T01:41:50.229Z,100563.33
2019-03-06T01:44:27.507Z,100560.39
2019-03-06T01:46:57.240Z,100559.61
2019-03-06T01:49:26.985Z,100552.44
2019-03-06T01:51:56.683Z,100548.48
2019-03-06T01:54:26.572Z,100536.80
2019-03-06T01:56:56.278Z,100537.59
2019-03-06T01:59:26.092Z,100535.74
2019-03-06T02:01:55.874Z,100520.66
2019-03-06T02:04:25.753Z,100523.31
2019-03-06T02:06:55.558Z,100518.78
2019-03-06T02:09:28.261Z,100520.67
2019-03-06T02:11:58.195Z,100512.70
2019-03-06T02:14:27.997Z,100519.63
2019-03-06T02:16:57.760Z,100513.22
2019-03-06T02:19:27.473Z,100519.03
2019-03-06T02:21:57.415Z,100506.84
2019-03-06T02:24:27.129Z,100510.02
2019-03-06T02:26:56.954Z,100504.45
2019-03-06T02:29:26.826Z,100497.29
2019-03-06T02:31:56.515Z,100493.03
2019-03-06T02:34:26.203Z,100485.91
2019-03-06T02:36:55.930Z,100485.13
2019-03-06T02:39:25.660Z,100474.77
2019-03-06T02:41:55.372Z,100464.97
2019-03-06T02:44:25.037Z,100463.09
2019-03-06T02:46:54.757Z,100452.23
2019-03-06T02:49:24.450Z,100445.02
2019-03-06T02:51:54.175Z,100445.58
2019-03-06T02:54:23.842Z,100443.45
2019-03-06T02:56:53.619Z,100439.50
2019-03-06T02:59:27.699Z,100443.20
2019-03-06T03:02:01.742Z,100439.99
2019-03-06T03:04:35.645Z,100439.72
2019-03-06T03:07:07.072Z,100439.96
2019-03-06T03:09:37.024Z,100432.81
2019-03-06T03:12:06.669Z,100420.07
2019-03-06T03:14:36.445Z,100413.19
2019-03-06T03:17:06.487Z,100409.25
2019-03-06T03:19:36.298Z,100403.66
2019-03-06T03:22:06.485Z,100398.61
2019-03-06T03:24:36.153Z,100395.16
2019-03-06T03:27:06.051Z,100396.97
2019-03-06T03:29:35.689Z,100404.37
2019-03-06T03:32:05.695Z,100404.64
2019-03-06T03:34:35.630Z,100398.30
2019-03-06T03:37:05.471Z,100405.20
2019-03-06T03:39:35.208Z,100398.33
2019-03-06T03:42:05.465Z,100403.95
2019-03-06T03:44:35.101Z,100406.25
2019-03-06T03:47:05.124Z,100397.73
2019-03-06T03:49:34.874Z,100387.16
2019-03-06T03:52:04.681Z,100390.38
2019-03-06T03:54:34.323Z,100389.81
2019-03-06T03:57:04.149Z,100378.92
2019-03-06T03:59:33.980Z,100379.09
2019-03-06T04:02:03.693Z,100372.25
2019-03-06T04:04:33.417Z,100370.65
2019-03-06T04:07:03.288Z,100370.41
2019-03-06T04:09:33.267Z,100362.60
2019-03-06T04:12:02.928Z,100363.92
2019-03-06T04:14:32.593Z,100360.19
2019-03-06T04:17:02.595Z,100360.09
2019-03-06T04:19:32.327Z,100363.27
2019-03-06T04:22:02.053Z,100362.23
2019-03-06T04:24:31.914Z,100356.13
2019-03-06T04:27:01.939Z,100367.17
2019-03-06T04:29:31.808Z,100371.19
2019-03-06T04:32:01.493Z,100366.92
2019-03-06T04:34:31.187Z,100361.63
2019-03-06T04:37:01.040Z,100353.18
2019-03-06T04:39:30.736Z,100351.33
2019-03-06T04:42:00.522Z,100344.98
2019-03-06T04:44:30.260Z,100334.17
2019-03-06T04:46:59.958Z,100329.97
2019-03-06T04:49:30.067Z,100326.55
2019-03-06T04:51:59.850Z,100318.48
2019-03-06T04:54:29.627Z,100312.63
2019-03-06T04:57:03.926Z,100316.08
2019-03-06T04:59:34.608Z,100310.44
2019-03-06T05:02:04.307Z,100302.48
2019-03-06T05:04:34.171Z,100301.47
2019-03-06T05:07:04.071Z,100300.11
2019-03-06T05:09:33.915Z,100302.70
2019-03-06T05:12:03.882Z,100306.73
2019-03-06T05:14:33.579Z,100307.15
2019-03-06T05:17:17.676Z,100298.38
2019-03-06T05:19:47.454Z,100295.27
2019-03-06T05:22:17.107Z,100285.69
2019-03-06T05:24:46.802Z,100292.27
2019-03-06T05:27:16.634Z,100289.66
2019-03-06T05:29:46.428Z,100278.43
2019-03-06T05:32:37.084Z,100272.31
2019-03-06T05:35:26.127Z,100256.97
2019-03-06T05:38:09.581Z,100251.17
2019-03-06T05:40:39.350Z,100245.19
2019-03-06T05:43:09.170Z,100248.70
2019-03-06T05:45:38.908Z,100245.30
2019-03-06T05:48:08.664Z,100239.92
2019-03-06T05:50:38.374Z,100235.90
2019-03-06T05:53:08.117Z,100227.39
2019-03-06T05:55:37.870Z,100224.47
2019-03-06T05:58:07.901Z,100215.17
2019-03-06T06:00:37.614Z,100207.41
2019-03-06T06:03:07.398Z,100201.82
2019-03-06T06:05:37.069Z,100207.14
2019-03-06T06:08:06.864Z,100189.07
2019-03-06T06:10:36.973Z,100183.19
2019-03-06T06:13:06.867Z,100177.80
2019-03-06T06:15:36.839Z,100177.33
2019-03-06T06:18:06.531Z,100168.58
2019-03-06T06:20:36.205Z,100175.73
2019-03-06T06:23:10.492Z,100165.09
2019-03-06T06:25:40.286Z,100160.38
2019-03-06T06:28:10.294Z,100159.20
2019-03-06T06:30:40.061Z,100157.67
2019-03-06T06:33:11.462Z,100161.18
2019-03-06T06:35:41.278Z,100154.39
2019-03-06T06:38:11.285Z,100144.35
2019-03-06T06:40:41.169Z,100150.94
2019-03-06T06:43:10.822Z,100149.03
2019-03-06T06:45:40.672Z,100136.03
2019-03-06T06:48:16.263Z,100141.27
2019-03-06T06:51:01.552Z,100135.14
2019-03-06T06:53:59.865Z,100125.17
2019-03-06T06:57:07.615Z,100121.16
2019-03-06T06:59:56.814Z,100116.91
2019-03-06T07:03:15.677Z,100103.41
2019-03-06T07:05:47.025Z,100100.88
2019-03-06T07:08:20.947Z,100098.28
2019-03-06T07:11:01.024Z,100092.83
2019-03-06T07:13:47.370Z,100088.02
2019-03-06T07:16:34.611Z,100073.78
2019-03-06T07:19:12.335Z,100077.15
2019-03-06T07:21:49.376Z,100070.50
2019-03-06T07:24:20.923Z,100065.48
2019-03-06T07:27:02.168Z,100056.77
2019-03-06T07:29:31.648Z,100061.23
2019-03-06T07:32:11.601Z,100063.56
2019-03-06T07:35:00.597Z,100063.27
2019-03-06T07:37:40.655Z,100060.91
2019-03-06T07:40:12.457Z,100060.94
2019-03-06T07:42:46.375Z,100065.13
2019-03-06T07:45:51.873Z,100064.83
2019-03-06T07:48:25.893Z,100065.13
2019-03-06T07:50:59.884Z,100067.78
2019-03-06T07:54:08.122Z,100054.90
2019-03-06T07:56:43.565Z,100056.89
2019-03-06T07:59:13.369Z,100055.55
2019-03-06T08:02:12.270Z,100053.15
2019-03-06T08:04:50.104Z,100046.77
2019-03-06T08:07:20.083Z,100036.72
2019-03-06T08:09:50.548Z,100029.59
2019-03-06T08:12:24.765Z,100026.64
2019-03-06T08:15:12.259Z,100027.83
2019-03-06T08:17:58.895Z,100005.94
2019-03-06T08:20:42.246Z,100009.09
2019-03-06T08:23:13.579Z,100003.20
2019-03-06T08:25:46.553Z,100004.53
2019-03-06T08:28:16.497Z,100007.34
2019-03-06T08:30:57.098Z,99991.50
2019-03-06T08:33:26.945Z,99991.63
2019-03-06T08:35:56.774Z,100003.35
2019-03-06T08:38:26.607Z,100000.38
2019-03-06T08:41:03.825Z,100002.49
2019-03-06T08:43:27.783Z,100002.20
2019-03-06T08:46:09.618Z,99992.83
2019-03-06T08:48:57.351Z,100000.75
2019-03-06T08:51:35.138Z,99992.70
2019-03-06T08:54:15.339Z,99990.17
2019-03-06T08:56:46.710Z,99994.64
2019-03-06T08:59:18.750Z,99989.39
2019-03-06T09:02:00.516Z,99993.20
2019-03-06T09:04:31.013Z,99973.16
2019-03-06T09:07:18.417Z,99979.28
2019-03-06T09:09:56.508Z,99973.41
2019-03-06T09:12:29.062Z,99966.61
2019-03-06T09:15:09.125Z,99959.14
2019-03-06T09:17:58.920Z,99948.70
2019-03-06T09:20:41.116Z,99950.48
2019-03-06T09:23:23.218Z,99940.08
2019-03-06T09:25:51.609Z,99927.63
2019-03-06T09:28:36.605Z,99922.08
2019-03-06T09:31:14.554Z,99907.86
2019-03-06T09:34:01.985Z,99910.09
2019-03-06T09:36:33.636Z,99906.34
2019-03-06T09:39:19.836Z,99895.47
2019-03-06T09:42:07.218Z,99886.05
2019-03-06T09:44:50.725Z,99883.80
2019-03-06T09:47:31.056Z,99865.67
2019-03-06T09:50:02.727Z,99869.92
2019-03-06T09:52:50.295Z,99873.53
2019-03-06T09:55:25.775Z,99871.02
2019-03-06T09:57:57.386Z,99869.20
2019-03-06T10:00:32.796Z,99869.13
2019-03-06T10:03:20.456Z,99855.83
2019-03-06T10:05:54.639Z,99848.75
2019-03-06T10:08:44.317Z,99851.14
2019-03-06T10:11:27.277Z,99848.05
2019-03-06T10:13:58.644Z,99841.22
2019-03-06T10:16:39.235Z,99837.53
2019-03-06T10:19:11.669Z,99850.03
2019-03-06T10:21:41.449Z,99844.36
2019-03-06T10:24:11.567Z,99839.85
2019-03-06T10:26:41.464Z,99841.77
2019-03-06T10:29:11.373Z,99849.07
2019-03-06T10:31:41.257Z,99846.05
2019-03-06T10:34:11.204Z,99844.36
2019-03-06T10:36:40.972Z,99844.70
2019-03-06T10:39:15.995Z,99846.36
2019-03-06T10:41:45.888Z,99828.15
2019-03-06T10:44:15.874Z,99842.85
2019-03-06T10:46:45.805Z,99840.00
2019-03-06T10:49:15.768Z,99830.84
2019-03-06T10:51:45.664Z,99833.69
2019-03-06T10:54:15.537Z,99832.25
2019-03-06T10:56:45.299Z,99841.64
2019-03-06T10:59:15.175Z,99824.58
2019-03-06T11:01:45.175Z,99824.25
2019-03-06T11:04:31.750Z,99816.11
2019-03-06T11:07:01.734Z,99818.63
2019-03-06T11:09:31.893Z,99815.95
2019-03-06T11:12:01.791Z,99799.73
2019-03-06T11:14:31.990Z,99800.30
2019-03-06T11:17:01.800Z,99797.62
2019-03-06T11:19:31.959Z,99797.20
2019-03-06T11:22:01.875Z,99793.61
2019-03-06T11:24:32.161Z,99781.63
2019-03-06T11:27:02.346Z,99768.33
2019-03-06T11:29:32.332Z,99772.30
2019-03-06T11:32:02.432Z,99772.43
2019-03-06T11:34:32.346Z,99762.93
2019-03-06T11:37:02.517Z,99754.09
2019-03-06T11:39:32.452Z,99740.83
2019-03-06T11:42:02.516Z,99731.59
2019-03-06T11:44:32.321Z,99728.70
2019-03-06T11:47:02.249Z,99721.88
2019-03-06T11:49:32.010Z,99718.53
2019-03-06T11:52:03.581Z,99716.88
2019-03-06T11:54:33.622Z,99707.04
2019-03-06T11:57:03.447Z,99702.23
2019-03-06T11:59:33.331Z,99687.93
2019-03-06T12:02:03.280Z,99690.50
2019-03-06T12:04:33.523Z,99696.33
2019-03-06T12:07:03.459Z,99695.64
2019-03-06T12:09:33.735Z,99680.02
2019-03-06T12:12:03.842Z,99662.92
2019-03-06T12:14:34.033Z,99667.94
2019-03-06T12:17:03.998Z,99661.35
2019-03-06T12:19:34.338Z,99658.79
2019-03-06T12:22:04.488Z,99659.69
2019-03-06T12:24:34.265Z,99658.37
2019-03-06T12:27:04.250Z,99646.95
2019-03-06T12:29:34.053Z,99642.48
2019-03-06T12:32:05.370Z,99642.34
2019-03-06T12:34:35.186Z,99633.78
2019-03-06T12:37:05.222Z,99628.17
2019-03-06T12:39:34.981Z,99621.92
2019-03-06T12:42:13.766Z,99607.86
2019-03-06T12:44:36.482Z,99618.94
2019-03-06T12:47:06.378Z,99610.35
2019-03-06T12:49:36.204Z,99612.59
2019-03-06T12:52:06.418Z,99604.77
2019-03-06T12:54:36.211Z,99597.66
2019-03-06T12:57:06.867Z,99598.88
2019-03-06T12:59:36.763Z,99602.09
2019-03-06T13:02:06.867Z,99608.97
2019-03-06T13:04:36.774Z,99599.36
2019-03-06T13:07:06.550Z,99602.50
2019-03-06T13:09:37.617Z,99598.81
2019-03-06T13:12:07.740Z,99592.91
2019-03-06T13:14:37.649Z,99591.50
2019-03-06T13:17:07.942Z,99578.12
2019-03-06T13:19:37.896Z,99577.00
2019-03-06T13:22:11.165Z,99565.50
2019-03-06T13:24:39.323Z,99555.92
2019-03-06T13:27:09.302Z,99548.34
2019-03-06T13:29:39.070Z,99549.66
2019-03-06T13:32:11.710Z,99544.29
2019-03-06T13:34:40.305Z,99531.36
2019-03-06T13:37:10.053Z,99523.55
2019-03-06T13:39:40.207Z,99520.41
2019-03-06T13:42:09.955Z,99524.66
2019-03-06T13:44:39.785Z,99520.45
2019-03-06T13:47:09.575Z,99527.81
2019-03-06T13:49:39.250Z,99518.20
2019-03-06T13:52:09.074Z,99532.61
2019-03-06T13:54:38.736Z,99536.05
2019-03-06T13:57:10.081Z,99532.92
2019-03-06T13:59:39.913Z,99531.36
2019-03-06T14:02:10.169Z,99534.60
2019-03-06T14:04:39.947Z,99540.30
2019-03-06T14:07:09.848Z,99546.09
2019-03-06T14:09:39.725Z,99546.77
2019-03-06T14:12:09.495Z,99541.74
2019-03-06T14:14:39.200Z,99549.66
2019-03-06T14:17:08.939Z,99549.34
2019-03-06T14:19:38.771Z,99544.52
2019-03-06T14:22:08.617Z,99540.86
2019-03-06T14:24:38.365Z,99548.97
2019-03-06T14:27:09.499Z,99540.02
2019-03-06T14:29:39.379Z,99550.24
2019-03-06T14:32:14.678Z,99552.25
2019-03-06T14:34:40.676Z,99563.83
2019-03-06T14:37:10.498Z,99564.91
2019-03-06T14:39:40.311Z,99556.52
2019-03-06T14:42:10.231Z,99564.41
2019-03-06T14:44:40.484Z,99562.48
2019-03-06T14:47:11.146Z,99568.33
2019-03-06T14:49:40.948Z,99562.57
2019-03-06T14:52:10.838Z,99550.86
2019-03-06T14:54:40.813Z,99551.62
2019-03-06T14:57:10.753Z,99539.09
2019-03-06T14:59:40.644Z,99533.38
2019-03-06T15:02:10.737Z,99528.63
2019-03-06T15:04:40.513Z,99527.03
2019-03-06T15:07:10.328Z,99527.36
2019-03-06T15:09:40.162Z,99523.81
2019-03-06T15:12:09.863Z,99508.59
2019-03-06T15:14:39.617Z,99508.35
2019-03-06T15:17:09.411Z,99506.03
2019-03-06T15:19:39.381Z,99496.53
2019-03-06T15:22:09.182Z,99483.67
2019-03-06T15:24:41.646Z,99488.14
2019-03-06T15:27:10.463Z,99482.39
2019-03-06T15:29:40.791Z,99483.67
2019-03-06T15:32:10.600Z,99481.12
2019-03-06T15:34:40.402Z,99478.31
2019-03-06T15:37:10.273Z,99474.64
2019-03-06T15:39:48.257Z,99473.06
2019-03-06T15:42:12.208Z,99472.17
2019-03-06T15:44:42.057Z,99469.17
2019-03-06T15:47:11.815Z,99462.28
2019-03-06T15:49:41.932Z,99457.56
2019-03-06T15:52:12.202Z,99454.50
2019-03-06T15:54:42.100Z,99459.63
2019-03-06T15:57:12.193Z,99443.39
2019-03-06T15:59:42.050Z,99441.02
2019-03-06T16:02:11.967Z,99428.83
2019-03-06T16:04:42.120Z,99432.05
2019-03-06T16:07:11.871Z,99431.06
2019-03-06T16:09:41.867Z,99428.38
2019-03-06T16:12:12.444Z,99425.91
2019-03-06T16:14:42.790Z,99422.72
2019-03-06T16:17:12.708Z,99419.86
2019-03-06T16:19:42.437Z,99421.52
2019-03-06T16:22:13.215Z,99428.31
2019-03-06T16:24:43.004Z,99426.84
2019-03-06T16:27:12.913Z,99426.59
2019-03-06T16:29:42.649Z,99427.44
2019-03-06T16:32:12.565Z,99422.30
2019-03-06T16:34:42.282Z,99420.39
2019-03-06T16:37:12.155Z,99413.91
2019-03-06T16:39:42.353Z,99406.56
2019-03-06T16:42:12.209Z,99409.70
2019-03-06T16:44:42.092Z,99407.44
2019-03-06T16:47:12.958Z,99398.64
2019-03-06T16:49:42.939Z,99400.30
2019-03-06T16:52:13.401Z,99410.35
2019-03-06T16:54:43.284Z,99403.48
2019-03-06T16:57:13.131Z,99408.48
2019-03-06T16:59:43.063Z,99414.37
2019-03-06T17:02:13.174Z,99415.36
2019-03-06T17:04:43.146Z,99414.05
2019-03-06T17:07:13.208Z,99400.16
2019-03-06T17:09:43.220Z,99403.28
2019-03-06T17:12:13.387Z,99399.67
2019-03-06T17:14:44.507Z,99402.09
2019-03-06T17:17:14.355Z,99400.11
2019-03-06T17:19:44.435Z,99397.44
2019-03-06T17:22:14.565Z,99413.91
2019-03-06T17:24:44.283Z,99407.11
2019-03-06T17:27:14.228Z,99404.57
2019-03-06T17:29:44.428Z,99403.48
2019-03-06T17:32:14.304Z,99412.71
2019-03-06T17:34:43.987Z,99405.03
2019-03-06T17:37:13.837Z,99407.44
2019-03-06T17:39:43.627Z,99412.18
2019-03-06T17:42:13.633Z,99411.03
2019-03-06T17:44:43.492Z,99409.23
2019-03-06T17:47:13.214Z,99408.97
2019-03-06T17:49:42.982Z,99410.09
2019-03-06T17:52:12.793Z,99399.17
2019-03-06T17:54:42.512Z,99396.50
2019-03-06T17:57:12.697Z,99399.28
2019-03-06T17:59:43.297Z,99394.81
2019-03-06T18:02:13.472Z,99393.56
2019-03-06T18:04:43.284Z,99388.47
2019-03-06T18:07:13.445Z,99395.28
2019-03-06T18:09:43.478Z,99387.20
2019-03-06T18:12:13.260Z,99375.66
2019-03-06T18:14:42.952Z,99365.55
2019-03-06T18:17:12.937Z,99363.78
2019-03-06T18:19:42.721Z,99364.66
2019-03-06T18:22:12.585Z,99362.64
2019-03-06T18:24:42.798Z,99350.23
2019-03-06T18:27:12.681Z,99348.38
2019-03-06T18:29:42.483Z,99341.78
2019-03-06T18:32:12.348Z,99332.52
2019-03-06T18:34:42.128Z,99341.84
2019-03-06T18:37:12.050Z,99348.09
2019-03-06T18:39:41.829Z,99334.96
2019-03-06T18:42:11.686Z,99336.46
2019-03-06T18:44:41.467Z,99337.86
2019-03-06T18:47:11.281Z,99330.64
2019-03-06T18:49:41.172Z,99330.43
2019-03-06T18:52:10.906Z,99330.23
2019-03-06T18:54:40.766Z,99335.16
2019-03-06T18:57:10.672Z,99325.14
2019-03-06T18:59:40.463Z,99326.69
2019-03-06T19:02:10.354Z,99328.11
2019-03-06T19:04:40.183Z,99321.23
2019-03-06T19:07:10.090Z,99325.83
2019-03-06T19:09:40.006Z,99312.81
2019-03-06T19:12:09.902Z,99312.02
2019-03-06T19:14:39.663Z,99303.88
2019-03-06T19:17:09.509Z,99301.01
2019-03-06T19:19:39.615Z,99288.78
2019-03-06T19:22:09.441Z,99295.80
2019-03-06T19:24:39.349Z,99297.71
2019-03-06T19:27:09.180Z,99289.79
2019-03-06T19:29:39.114Z,99287.83
2019-03-06T19:32:08.961Z,99294.47
2019-03-06T19:34:38.694Z,99289.70
2019-03-06T19:37:08.564Z,99283.28
2019-03-06T19:39:38.213Z,99287.41
2019-03-06T19:42:08.026Z,99281.94
2019-03-06T19:44:37.858Z,99275.27
2019-03-06T19:47:07.775Z,99272.59
2019-03-06T19:49:37.950Z,99284.28
2019-03-06T19:52:07.893Z,99290.08
2019-03-06T19:54:37.755Z,99290.31
2019-03-06T19:57:07.823Z,99291.16
2019-03-06T19:59:37.633Z,99283.36
2019-03-06T20:02:08.126Z,99287.61
2019-03-06T20:04:38.284Z,99278.52
2019-03-06T20:07:08.260Z,99278.61
2019-03-06T20:09:38.358Z,99278.27
2019-03-06T20:12:08.721Z,99275.96
2019-03-06T20:14:38.604Z,99272.50
2019-03-06T20:17:08.443Z,99273.39
2019-03-06T20:19:38.433Z,99260.28
2019-03-06T20:22:08.296Z,99269.84
2019-03-06T20:24:38.064Z,99268.80
2019-03-06T20:27:08.032Z,99267.38
2019-03-06T20:29:37.863Z,99261.59
2019-03-06T20:32:07.933Z,99259.13
2019-03-06T20:34:37.799Z,99260.22
2019-03-06T20:37:08.028Z,99261.31
2019-03-06T20:39:38.142Z,99254.09
2019-03-06T20:42:08.105Z,99252.63
2019-03-06T20:44:37.833Z,99248.17
2019-03-06T20:47:07.800Z,99255.63
2019-03-06T20:49:37.484Z,99256.72
2019-03-06T20:52:07.318Z,99264.59
2019-03-06T20:54:37.067Z,99263.39
2019-03-06T20:57:07.028Z,99262.26
2019-03-06T20:59:36.690Z,99257.46
2019-03-06T21:02:06.632Z,99263.43
2019-03-06T21:04:36.492Z,99260.47
2019-03-06T21:07:06.264Z,99265.22
2019-03-06T21:09:36.071Z,99269.13
2019-03-06T21:12:05.897Z,99264.33
2019-03-06T21:14:35.823Z,99263.88
2019-03-06T21:17:07.087Z,99255.21
2019-03-06T21:19:36.887Z,99252.75
2019-03-06T21:22:07.071Z,99245.87
2019-03-06T21:24:36.960Z,99245.75
2019-03-06T21:27:06.857Z,99248.83
2019-03-06T21:29:36.663Z,99238.95
2019-03-06T21:32:06.592Z,99227.94
2019-03-06T21:34:36.526Z,99222.94
2019-03-06T21:37:06.585Z,99225.56
2019-03-06T21:39:36.323Z,99218.69
2019-03-06T21:42:06.170Z,99214.89
2019-03-06T21:44:36.132Z,99213.95
2019-03-06T21:47:06.031Z,99213.14
2019-03-06T21:49:35.930Z,99213.14
2019-03-06T21:52:05.900Z,99211.36
2019-03-06T21:54:35.743Z,99206.81
2019-03-06T21:57:05.757Z,99207.65
2019-03-06T21:59:35.659Z,99197.44
2019-03-06T22:02:05.524Z,99204.73
2019-03-06T22:04:35.386Z,99199.36
2019-03-06T22:07:05.684Z,99194.39
2019-03-06T22:09:36.218Z,99187.15
2019-03-06T22:12:06.180Z,99184.39
2019-03-06T22:14:35.866Z,99189.15
2019-03-06T22:17:05.824Z,99188.48
2019-03-06T22:19:35.648Z,99182.11
2019-03-06T22:22:05.583Z,99185.34
2019-03-06T22:24:35.373Z,99181.27
2019-03-06T22:27:05.305Z,99182.94
2019-03-06T22:29:35.345Z,99175.48
2019-03-06T22:32:05.201Z,99177.81
2019-03-06T22:34:34.979Z,99173.34
2019-03-06T22:37:04.743Z,99165.22
2019-03-06T22:39:34.454Z,99164.09
2019-03-06T22:42:04.283Z,99161.02
2019-03-06T22:44:34.176Z,99157.44
2019-03-06T22:47:03.999Z,99152.89
2019-03-06T22:49:33.689Z,99146.52
2019-03-06T22:52:03.411Z,99139.19
2019-03-06T22:54:33.271Z,99142.31
2019-03-06T22:57:03.084Z,99134.89
2019-03-06T22:59:32.837Z,99132.55
2019-03-06T23:02:02.804Z,99120.23
2019-03-06T23:04:32.662Z,99114.44
2019-03-06T23:07:02.566Z,99113.31
2019-03-06T23:09:32.430Z,99110.40
2019-03-06T23:12:02.165Z,99100.28
2019-03-06T23:14:32.308Z,99095.19
2019-03-06T23:17:02.131Z,99100.40
2019-03-06T23:19:31.947Z,99085.50
2019-03-06T23:22:01.748Z,99091.07
2019-03-06T23:24:31.533Z,99087.73
2019-03-06T23:27:01.375Z,99082.16
2019-03-06T23:29:31.123Z,99076.73
2019-03-06T23:32:00.840Z,99077.08
2019-03-06T23:34:30.543Z,99067.20
2019-03-06T23:37:00.253Z,99054.41
2019-03-06T23:39:30.012Z,99059.08
2019-03-06T23:42:00.017Z,99053.75
2019-03-06T23:44:29.756Z,99047.33
2019-03-06T23:46:59.443Z,99045.54
2019-03-06T23:49:29.169Z,99050.78
2019-03-06T23:52:00.188Z,99051.53
2019-03-06T23:54:30.201Z,99044.20
2019-03-06T23:57:00.085Z,99037.54
2019-03-06T23:59:29.927Z,99035.45
